sensor_id;sensor_type;location;lat;lon;timestamp;P1;durP1;ratioP1;P2;durP2;ratioP2
8881;SDS011;4477;48.736;9.176;2023-12-20T00:01:10;1.80;;;1.53;;
8881;SDS011;4477;48.736;9.176;2023-12-20T00:03:37;1.63;;;1.50;;
8881;SDS011;4477;48.736;9.176;2023-12-20T00:06:05;1.60;;;1.50;;
8881;SDS011;4477;48.736;9.176;2023-12-20T00:08:33;1.47;;;1.37;;
8881;SDS011;4477;48.736;9.176;2023-12-20T00:11:00;1.50;;;1.30;;
8881;SDS011;4477;48.736;9.176;2023-12-20T00:13:28;1.50;;;1.40;;
8881;SDS011;4477;48.736;9.176;2023-12-20T00:15:55;1.50;;;1.40;;
8881;SDS011;4477;48.736;9.176;2023-12-20T00:18:22;2.03;;;1.30;;
8881;SDS011;4477;48.736;9.176;2023-12-20T00:20:50;1.40;;;1.20;;
8881;SDS011;4477;48.736;9.176;2023-12-20T00:23:17;1.30;;;1.20;;
8881;SDS011;4477;48.736;9.176;2023-12-20T00:25:44;1.40;;;1.20;;
8881;SDS011;4477;48.736;9.176;2023-12-20T00:28:12;1.43;;;1.33;;
8881;SDS011;4477;48.736;9.176;2023-12-20T00:30:40;1.40;;;1.30;;
8881;SDS011;4477;48.736;9.176;2023-12-20T00:33:08;1.40;;;1.30;;
8881;SDS011;4477;48.736;9.176;2023-12-20T00:35:34;1.93;;;1.10;;
8881;SDS011;4477;48.736;9.176;2023-12-20T00:38:01;1.47;;;1.37;;
8881;SDS011;4477;48.736;9.176;2023-12-20T00:40:30;1.20;;;1.20;;
8881;SDS011;4477;48.736;9.176;2023-12-20T00:42:57;1.30;;;1.20;;
8881;SDS011;4477;48.736;9.176;2023-12-20T00:45:24;1.27;;;1.00;;
8881;SDS011;4477;48.736;9.176;2023-12-20T00:47:53;1.20;;;1.00;;
8881;SDS011;4477;48.736;9.176;2023-12-20T00:50:23;1.23;;;1.10;;
8881;SDS011;4477;48.736;9.176;2023-12-20T00:53:04;1.80;;;1.30;;
8881;SDS011;4477;48.736;9.176;2023-12-20T00:55:37;1.30;;;1.20;;
8881;SDS011;4477;48.736;9.176;2023-12-20T00:58:20;1.10;;;1.00;;
8881;SDS011;4477;48.736;9.176;2023-12-20T01:00:47;1.70;;;1.30;;
8881;SDS011;4477;48.736;9.176;2023-12-20T01:03:15;1.33;;;1.23;;
8881;SDS011;4477;48.736;9.176;2023-12-20T01:05:42;2.77;;;1.40;;
8881;SDS011;4477;48.736;9.176;2023-12-20T01:08:10;1.40;;;1.30;;
8881;SDS011;4477;48.736;9.176;2023-12-20T01:10:37;1.20;;;1.10;;
8881;SDS011;4477;48.736;9.176;2023-12-20T01:13:05;1.70;;;1.60;;
8881;SDS011;4477;48.736;9.176;2023-12-20T01:15:33;1.40;;;1.30;;
8881;SDS011;4477;48.736;9.176;2023-12-20T01:18:00;1.73;;;1.40;;
8881;SDS011;4477;48.736;9.176;2023-12-20T01:20:29;1.53;;;1.30;;
8881;SDS011;4477;48.736;9.176;2023-12-20T01:22:56;2.50;;;1.50;;
8881;SDS011;4477;48.736;9.176;2023-12-20T01:25:23;1.37;;;1.20;;
8881;SDS011;4477;48.736;9.176;2023-12-20T01:27:49;1.93;;;1.53;;
8881;SDS011;4477;48.736;9.176;2023-12-20T01:30:16;2.77;;;1.67;;
8881;SDS011;4477;48.736;9.176;2023-12-20T01:32:43;2.03;;;1.43;;
8881;SDS011;4477;48.736;9.176;2023-12-20T01:35:10;1.50;;;1.40;;
8881;SDS011;4477;48.736;9.176;2023-12-20T01:37:39;1.73;;;1.63;;
8881;SDS011;4477;48.736;9.176;2023-12-20T01:40:07;1.43;;;1.33;;
8881;SDS011;4477;48.736;9.176;2023-12-20T01:42:34;1.90;;;1.70;;
8881;SDS011;4477;48.736;9.176;2023-12-20T01:45:01;1.83;;;1.50;;
8881;SDS011;4477;48.736;9.176;2023-12-20T01:47:28;2.50;;;1.90;;
8881;SDS011;4477;48.736;9.176;2023-12-20T01:49:55;1.70;;;1.60;;
8881;SDS011;4477;48.736;9.176;2023-12-20T01:52:23;1.63;;;1.50;;
8881;SDS011;4477;48.736;9.176;2023-12-20T01:54:52;2.00;;;1.60;;
8881;SDS011;4477;48.736;9.176;2023-12-20T01:57:26;2.47;;;1.80;;
8881;SDS011;4477;48.736;9.176;2023-12-20T01:59:52;4.27;;;1.90;;
8881;SDS011;4477;48.736;9.176;2023-12-20T02:02:19;1.77;;;1.60;;
8881;SDS011;4477;48.736;9.176;2023-12-20T02:04:46;1.90;;;1.80;;
8881;SDS011;4477;48.736;9.176;2023-12-20T02:07:13;1.80;;;1.40;;
8881;SDS011;4477;48.736;9.176;2023-12-20T02:09:40;2.63;;;1.90;;
8881;SDS011;4477;48.736;9.176;2023-12-20T02:12:09;1.97;;;1.77;;
8881;SDS011;4477;48.736;9.176;2023-12-20T02:14:36;1.80;;;1.57;;
8881;SDS011;4477;48.736;9.176;2023-12-20T02:17:03;1.57;;;1.47;;
8881;SDS011;4477;48.736;9.176;2023-12-20T02:19:29;1.87;;;1.60;;
8881;SDS011;4477;48.736;9.176;2023-12-20T02:22:08;1.47;;;1.37;;
8881;SDS011;4477;48.736;9.176;2023-12-20T02:24:35;2.33;;;1.33;;
8881;SDS011;4477;48.736;9.176;2023-12-20T02:27:02;2.77;;;1.40;;
8881;SDS011;4477;48.736;9.176;2023-12-20T02:29:32;2.40;;;1.27;;
8881;SDS011;4477;48.736;9.176;2023-12-20T02:31:59;1.40;;;1.30;;
8881;SDS011;4477;48.736;9.176;2023-12-20T02:34:26;1.73;;;1.57;;
8881;SDS011;4477;48.736;9.176;2023-12-20T02:36:53;1.80;;;1.30;;
8881;SDS011;4477;48.736;9.176;2023-12-20T02:39:21;1.30;;;1.10;;
8881;SDS011;4477;48.736;9.176;2023-12-20T02:41:48;1.00;;;1.00;;
8881;SDS011;4477;48.736;9.176;2023-12-20T02:44:15;1.20;;;1.00;;
8881;SDS011;4477;48.736;9.176;2023-12-20T02:46:42;1.97;;;1.23;;
8881;SDS011;4477;48.736;9.176;2023-12-20T02:49:09;1.23;;;1.00;;
8881;SDS011;4477;48.736;9.176;2023-12-20T02:51:36;1.87;;;1.30;;
8881;SDS011;4477;48.736;9.176;2023-12-20T02:54:04;1.23;;;1.00;;
8881;SDS011;4477;48.736;9.176;2023-12-20T02:56:32;0.90;;;0.90;;
8881;SDS011;4477;48.736;9.176;2023-12-20T02:58:59;1.73;;;1.10;;
8881;SDS011;4477;48.736;9.176;2023-12-20T03:01:27;0.90;;;0.90;;
8881;SDS011;4477;48.736;9.176;2023-12-20T03:03:54;1.00;;;0.90;;
8881;SDS011;4477;48.736;9.176;2023-12-20T03:06:21;1.40;;;1.30;;
8881;SDS011;4477;48.736;9.176;2023-12-20T03:08:48;2.10;;;1.23;;
8881;SDS011;4477;48.736;9.176;2023-12-20T03:11:15;1.70;;;1.60;;
8881;SDS011;4477;48.736;9.176;2023-12-20T03:13:43;2.33;;;1.77;;
8881;SDS011;4477;48.736;9.176;2023-12-20T03:16:10;4.27;;;2.53;;
8881;SDS011;4477;48.736;9.176;2023-12-20T03:18:37;2.80;;;2.60;;
8881;SDS011;4477;48.736;9.176;2023-12-20T03:21:05;3.77;;;2.00;;
8881;SDS011;4477;48.736;9.176;2023-12-20T03:23:32;1.70;;;1.60;;
8881;SDS011;4477;48.736;9.176;2023-12-20T03:25:59;1.13;;;1.03;;
8881;SDS011;4477;48.736;9.176;2023-12-20T03:28:26;0.90;;;0.90;;
8881;SDS011;4477;48.736;9.176;2023-12-20T03:30:55;1.10;;;1.00;;
8881;SDS011;4477;48.736;9.176;2023-12-20T03:33:22;0.90;;;0.90;;
8881;SDS011;4477;48.736;9.176;2023-12-20T03:35:48;1.10;;;0.90;;
8881;SDS011;4477;48.736;9.176;2023-12-20T03:38:15;2.57;;;1.33;;
8881;SDS011;4477;48.736;9.176;2023-12-20T03:40:42;2.97;;;1.77;;
8881;SDS011;4477;48.736;9.176;2023-12-20T03:43:09;0.70;;;0.70;;
8881;SDS011;4477;48.736;9.176;2023-12-20T03:45:36;0.50;;;0.50;;
8881;SDS011;4477;48.736;9.176;2023-12-20T03:48:05;0.80;;;0.40;;
8881;SDS011;4477;48.736;9.176;2023-12-20T03:50:32;0.60;;;0.40;;
8881;SDS011;4477;48.736;9.176;2023-12-20T03:52:59;0.30;;;0.30;;
8881;SDS011;4477;48.736;9.176;2023-12-20T03:55:26;0.37;;;0.37;;
8881;SDS011;4477;48.736;9.176;2023-12-20T03:57:53;1.00;;;0.53;;
8881;SDS011;4477;48.736;9.176;2023-12-20T04:00:19;0.33;;;0.33;;
8881;SDS011;4477;48.736;9.176;2023-12-20T04:02:46;1.03;;;0.47;;
8881;SDS011;4477;48.736;9.176;2023-12-20T04:05:15;0.70;;;0.30;;
8881;SDS011;4477;48.736;9.176;2023-12-20T04:07:41;0.60;;;0.40;;
8881;SDS011;4477;48.736;9.176;2023-12-20T04:10:09;0.40;;;0.30;;
8881;SDS011;4477;48.736;9.176;2023-12-20T04:12:35;1.30;;;0.37;;
8881;SDS011;4477;48.736;9.176;2023-12-20T04:15:02;0.20;;;0.20;;
8881;SDS011;4477;48.736;9.176;2023-12-20T04:17:34;0.37;;;0.30;;
8881;SDS011;4477;48.736;9.176;2023-12-20T04:20:02;0.30;;;0.30;;
8881;SDS011;4477;48.736;9.176;2023-12-20T04:22:31;0.33;;;0.30;;
8881;SDS011;4477;48.736;9.176;2023-12-20T04:24:58;0.40;;;0.30;;
8881;SDS011;4477;48.736;9.176;2023-12-20T04:27:25;2.40;;;0.47;;
8881;SDS011;4477;48.736;9.176;2023-12-20T04:29:52;0.50;;;0.40;;
8881;SDS011;4477;48.736;9.176;2023-12-20T04:32:18;0.60;;;0.40;;
8881;SDS011;4477;48.736;9.176;2023-12-20T04:34:45;0.63;;;0.33;;
8881;SDS011;4477;48.736;9.176;2023-12-20T04:37:12;0.40;;;0.30;;
8881;SDS011;4477;48.736;9.176;2023-12-20T04:39:40;0.30;;;0.30;;
8881;SDS011;4477;48.736;9.176;2023-12-20T04:42:07;0.30;;;0.30;;
8881;SDS011;4477;48.736;9.176;2023-12-20T04:44:34;0.40;;;0.30;;
8881;SDS011;4477;48.736;9.176;2023-12-20T04:47:01;1.37;;;0.30;;
8881;SDS011;4477;48.736;9.176;2023-12-20T04:49:28;0.70;;;0.40;;
8881;SDS011;4477;48.736;9.176;2023-12-20T04:51:55;1.53;;;0.40;;
8881;SDS011;4477;48.736;9.176;2023-12-20T04:54:22;0.73;;;0.30;;
8881;SDS011;4477;48.736;9.176;2023-12-20T04:56:50;0.40;;;0.30;;
8881;SDS011;4477;48.736;9.176;2023-12-20T04:59:17;0.40;;;0.33;;
8881;SDS011;4477;48.736;9.176;2023-12-20T05:01:44;0.30;;;0.30;;
8881;SDS011;4477;48.736;9.176;2023-12-20T05:04:11;1.17;;;0.40;;
8881;SDS011;4477;48.736;9.176;2023-12-20T05:06:37;1.43;;;0.30;;
8881;SDS011;4477;48.736;9.176;2023-12-20T05:09:04;0.30;;;0.30;;
8881;SDS011;4477;48.736;9.176;2023-12-20T05:11:31;0.40;;;0.40;;
8881;SDS011;4477;48.736;9.176;2023-12-20T05:13:59;0.70;;;0.43;;
8881;SDS011;4477;48.736;9.176;2023-12-20T05:16:26;0.30;;;0.30;;
8881;SDS011;4477;48.736;9.176;2023-12-20T05:18:53;1.23;;;0.40;;
8881;SDS011;4477;48.736;9.176;2023-12-20T05:21:21;1.80;;;0.47;;
8881;SDS011;4477;48.736;9.176;2023-12-20T05:23:49;0.40;;;0.40;;
8881;SDS011;4477;48.736;9.176;2023-12-20T05:26:15;4.83;;;0.70;;
8881;SDS011;4477;48.736;9.176;2023-12-20T05:28:42;0.50;;;0.50;;
8881;SDS011;4477;48.736;9.176;2023-12-20T05:31:11;1.93;;;0.53;;
8881;SDS011;4477;48.736;9.176;2023-12-20T05:33:38;1.73;;;0.50;;
8881;SDS011;4477;48.736;9.176;2023-12-20T05:36:05;1.37;;;0.40;;
8881;SDS011;4477;48.736;9.176;2023-12-20T05:38:36;0.80;;;0.80;;
8881;SDS011;4477;48.736;9.176;2023-12-20T05:41:03;1.73;;;0.70;;
8881;SDS011;4477;48.736;9.176;2023-12-20T05:43:30;0.70;;;0.70;;
8881;SDS011;4477;48.736;9.176;2023-12-20T05:45:56;0.70;;;0.70;;
8881;SDS011;4477;48.736;9.176;2023-12-20T05:48:25;1.07;;;0.70;;
8881;SDS011;4477;48.736;9.176;2023-12-20T05:50:52;1.40;;;0.70;;
8881;SDS011;4477;48.736;9.176;2023-12-20T05:53:19;1.60;;;0.80;;
8881;SDS011;4477;48.736;9.176;2023-12-20T05:55:46;0.80;;;0.60;;
8881;SDS011;4477;48.736;9.176;2023-12-20T05:58:13;1.10;;;0.87;;
8881;SDS011;4477;48.736;9.176;2023-12-20T06:00:40;1.27;;;1.10;;
8881;SDS011;4477;48.736;9.176;2023-12-20T06:03:07;0.80;;;0.67;;
8881;SDS011;4477;48.736;9.176;2023-12-20T06:05:35;3.20;;;1.40;;
8881;SDS011;4477;48.736;9.176;2023-12-20T06:08:02;1.20;;;1.00;;
8881;SDS011;4477;48.736;9.176;2023-12-20T06:10:29;1.77;;;1.40;;
8881;SDS011;4477;48.736;9.176;2023-12-20T06:12:56;2.60;;;1.00;;
8881;SDS011;4477;48.736;9.176;2023-12-20T06:15:24;2.47;;;1.07;;
8881;SDS011;4477;48.736;9.176;2023-12-20T06:17:50;4.47;;;1.50;;
8881;SDS011;4477;48.736;9.176;2023-12-20T06:20:17;5.30;;;1.20;;
8881;SDS011;4477;48.736;9.176;2023-12-20T06:22:45;1.73;;;1.30;;
8881;SDS011;4477;48.736;9.176;2023-12-20T06:25:12;2.13;;;1.33;;
8881;SDS011;4477;48.736;9.176;2023-12-20T06:27:39;1.50;;;1.37;;
8881;SDS011;4477;48.736;9.176;2023-12-20T06:30:06;2.40;;;1.50;;
8881;SDS011;4477;48.736;9.176;2023-12-20T06:32:34;2.57;;;1.50;;
8881;SDS011;4477;48.736;9.176;2023-12-20T06:35:03;2.73;;;1.90;;
8881;SDS011;4477;48.736;9.176;2023-12-20T06:37:31;2.07;;;1.60;;
8881;SDS011;4477;48.736;9.176;2023-12-20T06:39:59;1.93;;;1.73;;
8881;SDS011;4477;48.736;9.176;2023-12-20T06:42:26;2.90;;;2.03;;
8881;SDS011;4477;48.736;9.176;2023-12-20T06:44:53;3.40;;;2.40;;
8881;SDS011;4477;48.736;9.176;2023-12-20T06:47:19;6.57;;;2.20;;
8881;SDS011;4477;48.736;9.176;2023-12-20T06:49:46;2.57;;;2.10;;
8881;SDS011;4477;48.736;9.176;2023-12-20T06:52:13;2.73;;;2.00;;
8881;SDS011;4477;48.736;9.176;2023-12-20T06:54:40;5.80;;;2.23;;
8881;SDS011;4477;48.736;9.176;2023-12-20T06:57:08;4.13;;;2.60;;
8881;SDS011;4477;48.736;9.176;2023-12-20T06:59:38;3.33;;;1.90;;
8881;SDS011;4477;48.736;9.176;2023-12-20T07:02:05;2.20;;;2.00;;
8881;SDS011;4477;48.736;9.176;2023-12-20T07:04:32;2.70;;;2.33;;
8881;SDS011;4477;48.736;9.176;2023-12-20T07:06:59;4.90;;;2.87;;
8881;SDS011;4477;48.736;9.176;2023-12-20T07:09:26;5.17;;;3.00;;
8881;SDS011;4477;48.736;9.176;2023-12-20T07:11:53;5.00;;;2.63;;
8881;SDS011;4477;48.736;9.176;2023-12-20T07:14:21;4.97;;;2.93;;
8881;SDS011;4477;48.736;9.176;2023-12-20T07:16:48;3.57;;;2.10;;
8881;SDS011;4477;48.736;9.176;2023-12-20T07:19:14;5.57;;;2.17;;
8881;SDS011;4477;48.736;9.176;2023-12-20T07:21:41;5.80;;;1.90;;
8881;SDS011;4477;48.736;9.176;2023-12-20T07:24:08;5.30;;;1.97;;
8881;SDS011;4477;48.736;9.176;2023-12-20T07:26:36;5.47;;;3.00;;
8881;SDS011;4477;48.736;9.176;2023-12-20T07:29:03;3.73;;;1.93;;
8881;SDS011;4477;48.736;9.176;2023-12-20T07:31:33;3.60;;;1.50;;
8881;SDS011;4477;48.736;9.176;2023-12-20T07:33:59;2.40;;;1.50;;
8881;SDS011;4477;48.736;9.176;2023-12-20T07:36:26;4.10;;;1.90;;
8881;SDS011;4477;48.736;9.176;2023-12-20T07:38:53;3.10;;;2.50;;
8881;SDS011;4477;48.736;9.176;2023-12-20T07:41:20;5.17;;;2.80;;
8881;SDS011;4477;48.736;9.176;2023-12-20T07:43:48;7.27;;;4.00;;
8881;SDS011;4477;48.736;9.176;2023-12-20T07:46:15;4.40;;;4.00;;
8881;SDS011;4477;48.736;9.176;2023-12-20T07:48:44;6.20;;;4.23;;
8881;SDS011;4477;48.736;9.176;2023-12-20T07:51:11;5.90;;;4.83;;
8881;SDS011;4477;48.736;9.176;2023-12-20T07:53:38;6.03;;;5.10;;
8881;SDS011;4477;48.736;9.176;2023-12-20T07:56:13;6.20;;;5.00;;
8881;SDS011;4477;48.736;9.176;2023-12-20T07:58:40;6.20;;;5.20;;
8881;SDS011;4477;48.736;9.176;2023-12-20T08:01:07;5.87;;;5.27;;
8881;SDS011;4477;48.736;9.176;2023-12-20T08:03:34;6.73;;;4.97;;
8881;SDS011;4477;48.736;9.176;2023-12-20T08:08:31;6.40;;;5.30;;
8881;SDS011;4477;48.736;9.176;2023-12-20T08:10:57;5.97;;;5.37;;
8881;SDS011;4477;48.736;9.176;2023-12-20T08:13:25;8.07;;;5.30;;
8881;SDS011;4477;48.736;9.176;2023-12-20T08:15:52;6.90;;;5.97;;
8881;SDS011;4477;48.736;9.176;2023-12-20T08:18:21;7.57;;;6.23;;
8881;SDS011;4477;48.736;9.176;2023-12-20T08:20:48;6.80;;;6.10;;
8881;SDS011;4477;48.736;9.176;2023-12-20T08:23:19;7.47;;;6.27;;
8881;SDS011;4477;48.736;9.176;2023-12-20T08:25:46;6.97;;;5.53;;
8881;SDS011;4477;48.736;9.176;2023-12-20T08:28:14;7.73;;;5.57;;
8881;SDS011;4477;48.736;9.176;2023-12-20T08:30:41;7.93;;;6.23;;
8881;SDS011;4477;48.736;9.176;2023-12-20T08:33:08;7.13;;;6.00;;
8881;SDS011;4477;48.736;9.176;2023-12-20T08:35:37;7.30;;;6.10;;
8881;SDS011;4477;48.736;9.176;2023-12-20T08:38:04;9.77;;;6.53;;
8881;SDS011;4477;48.736;9.176;2023-12-20T08:40:33;6.83;;;5.80;;
8881;SDS011;4477;48.736;9.176;2023-12-20T08:43:00;6.90;;;6.13;;
8881;SDS011;4477;48.736;9.176;2023-12-20T08:45:27;6.93;;;6.20;;
8881;SDS011;4477;48.736;9.176;2023-12-20T08:47:54;6.63;;;5.93;;
8881;SDS011;4477;48.736;9.176;2023-12-20T08:50:21;7.07;;;5.90;;
8881;SDS011;4477;48.736;9.176;2023-12-20T08:52:48;6.30;;;5.33;;
8881;SDS011;4477;48.736;9.176;2023-12-20T08:55:15;6.87;;;5.50;;
8881;SDS011;4477;48.736;9.176;2023-12-20T08:57:44;6.20;;;4.80;;
8881;SDS011;4477;48.736;9.176;2023-12-20T09:00:12;7.37;;;5.10;;
8881;SDS011;4477;48.736;9.176;2023-12-20T09:02:39;5.53;;;4.63;;
8881;SDS011;4477;48.736;9.176;2023-12-20T09:05:06;5.83;;;5.23;;
8881;SDS011;4477;48.736;9.176;2023-12-20T09:07:34;5.57;;;4.67;;
8881;SDS011;4477;48.736;9.176;2023-12-20T09:10:01;6.77;;;5.00;;
8881;SDS011;4477;48.736;9.176;2023-12-20T09:12:28;7.70;;;5.27;;
8881;SDS011;4477;48.736;9.176;2023-12-20T09:14:57;6.60;;;5.87;;
8881;SDS011;4477;48.736;9.176;2023-12-20T09:17:24;8.53;;;5.83;;
8881;SDS011;4477;48.736;9.176;2023-12-20T09:19:50;5.03;;;4.53;;
8881;SDS011;4477;48.736;9.176;2023-12-20T09:22:19;6.60;;;3.80;;
8881;SDS011;4477;48.736;9.176;2023-12-20T09:24:46;3.30;;;3.00;;
8881;SDS011;4477;48.736;9.176;2023-12-20T09:27:12;4.60;;;2.70;;
8881;SDS011;4477;48.736;9.176;2023-12-20T09:29:39;4.80;;;2.40;;
8881;SDS011;4477;48.736;9.176;2023-12-20T09:32:08;2.97;;;2.17;;
8881;SDS011;4477;48.736;9.176;2023-12-20T09:34:34;3.53;;;2.23;;
8881;SDS011;4477;48.736;9.176;2023-12-20T09:37:02;3.17;;;2.00;;
8881;SDS011;4477;48.736;9.176;2023-12-20T09:39:30;4.03;;;2.17;;
8881;SDS011;4477;48.736;9.176;2023-12-20T09:42:00;5.77;;;2.07;;
8881;SDS011;4477;48.736;9.176;2023-12-20T09:44:27;2.40;;;1.60;;
8881;SDS011;4477;48.736;9.176;2023-12-20T09:46:55;4.27;;;1.80;;
8881;SDS011;4477;48.736;9.176;2023-12-20T09:49:24;2.40;;;1.60;;
8881;SDS011;4477;48.736;9.176;2023-12-20T09:51:53;2.07;;;1.63;;
8881;SDS011;4477;48.736;9.176;2023-12-20T09:54:21;2.77;;;1.23;;
8881;SDS011;4477;48.736;9.176;2023-12-20T09:56:48;4.73;;;1.60;;
8881;SDS011;4477;48.736;9.176;2023-12-20T09:59:15;5.07;;;1.67;;
8881;SDS011;4477;48.736;9.176;2023-12-20T10:01:42;3.17;;;1.30;;
8881;SDS011;4477;48.736;9.176;2023-12-20T10:04:10;7.77;;;1.40;;
8881;SDS011;4477;48.736;9.176;2023-12-20T10:06:41;3.90;;;1.40;;
8881;SDS011;4477;48.736;9.176;2023-12-20T10:09:09;2.33;;;1.20;;
8881;SDS011;4477;48.736;9.176;2023-12-20T10:11:37;4.03;;;1.10;;
8881;SDS011;4477;48.736;9.176;2023-12-20T10:14:04;5.53;;;1.40;;
8881;SDS011;4477;48.736;9.176;2023-12-20T10:16:32;4.43;;;1.20;;
8881;SDS011;4477;48.736;9.176;2023-12-20T10:19:00;2.87;;;1.40;;
8881;SDS011;4477;48.736;9.176;2023-12-20T10:21:27;3.07;;;1.40;;
8881;SDS011;4477;48.736;9.176;2023-12-20T10:23:56;2.03;;;1.00;;
8881;SDS011;4477;48.736;9.176;2023-12-20T10:26:24;2.90;;;1.30;;
8881;SDS011;4477;48.736;9.176;2023-12-20T10:28:52;2.50;;;1.10;;
8881;SDS011;4477;48.736;9.176;2023-12-20T10:31:27;2.37;;;1.30;;
8881;SDS011;4477;48.736;9.176;2023-12-20T10:33:55;3.10;;;1.20;;
8881;SDS011;4477;48.736;9.176;2023-12-20T10:36:24;4.50;;;1.60;;
8881;SDS011;4477;48.736;9.176;2023-12-20T10:38:53;3.83;;;1.53;;
8881;SDS011;4477;48.736;9.176;2023-12-20T10:41:23;4.93;;;1.63;;
8881;SDS011;4477;48.736;9.176;2023-12-20T10:43:55;2.97;;;1.80;;
8881;SDS011;4477;48.736;9.176;2023-12-20T10:46:24;2.30;;;1.20;;
8881;SDS011;4477;48.736;9.176;2023-12-20T10:48:53;4.37;;;1.40;;
8881;SDS011;4477;48.736;9.176;2023-12-20T10:51:21;2.90;;;1.80;;
8881;SDS011;4477;48.736;9.176;2023-12-20T10:53:49;4.63;;;1.40;;
8881;SDS011;4477;48.736;9.176;2023-12-20T10:56:17;4.70;;;1.40;;
8881;SDS011;4477;48.736;9.176;2023-12-20T10:58:49;4.20;;;2.07;;
8881;SDS011;4477;48.736;9.176;2023-12-20T11:01:17;4.20;;;1.90;;
8881;SDS011;4477;48.736;9.176;2023-12-20T11:03:48;2.73;;;1.40;;
8881;SDS011;4477;48.736;9.176;2023-12-20T11:09:08;3.50;;;1.83;;
8881;SDS011;4477;48.736;9.176;2023-12-20T11:11:50;3.17;;;1.80;;
8881;SDS011;4477;48.736;9.176;2023-12-20T11:14:31;3.93;;;1.70;;
8881;SDS011;4477;48.736;9.176;2023-12-20T11:17:08;3.77;;;1.60;;
8881;SDS011;4477;48.736;9.176;2023-12-20T11:19:36;5.47;;;1.83;;
8881;SDS011;4477;48.736;9.176;2023-12-20T11:22:09;4.67;;;1.90;;
8881;SDS011;4477;48.736;9.176;2023-12-20T11:24:38;4.30;;;1.97;;
8881;SDS011;4477;48.736;9.176;2023-12-20T11:27:12;4.30;;;1.83;;
8881;SDS011;4477;48.736;9.176;2023-12-20T11:29:40;4.33;;;1.60;;
8881;SDS011;4477;48.736;9.176;2023-12-20T11:34:55;2.17;;;1.57;;
8881;SDS011;4477;48.736;9.176;2023-12-20T11:37:27;7.43;;;2.03;;
8881;SDS011;4477;48.736;9.176;2023-12-20T11:39:59;6.97;;;1.97;;
8881;SDS011;4477;48.736;9.176;2023-12-20T11:42:27;2.37;;;1.43;;
8881;SDS011;4477;48.736;9.176;2023-12-20T11:44:55;3.60;;;1.40;;
8881;SDS011;4477;48.736;9.176;2023-12-20T11:47:22;4.90;;;1.93;;
8881;SDS011;4477;48.736;9.176;2023-12-20T11:49:49;4.10;;;1.80;;
8881;SDS011;4477;48.736;9.176;2023-12-20T11:52:16;3.83;;;1.50;;
8881;SDS011;4477;48.736;9.176;2023-12-20T11:54:43;5.20;;;1.53;;
8881;SDS011;4477;48.736;9.176;2023-12-20T11:57:10;3.83;;;1.87;;
8881;SDS011;4477;48.736;9.176;2023-12-20T11:59:39;3.90;;;1.70;;
8881;SDS011;4477;48.736;9.176;2023-12-20T12:02:08;5.27;;;1.70;;
8881;SDS011;4477;48.736;9.176;2023-12-20T12:04:37;6.40;;;2.10;;
8881;SDS011;4477;48.736;9.176;2023-12-20T12:07:04;7.13;;;2.30;;
8881;SDS011;4477;48.736;9.176;2023-12-20T12:09:31;5.63;;;2.00;;
8881;SDS011;4477;48.736;9.176;2023-12-20T12:11:58;3.17;;;1.40;;
8881;SDS011;4477;48.736;9.176;2023-12-20T12:14:25;3.97;;;1.60;;
8881;SDS011;4477;48.736;9.176;2023-12-20T12:16:52;5.60;;;2.20;;
8881;SDS011;4477;48.736;9.176;2023-12-20T12:19:21;7.37;;;2.13;;
8881;SDS011;4477;48.736;9.176;2023-12-20T12:21:49;4.53;;;1.97;;
8881;SDS011;4477;48.736;9.176;2023-12-20T12:24:19;5.03;;;2.20;;
8881;SDS011;4477;48.736;9.176;2023-12-20T12:26:49;5.40;;;1.70;;
8881;SDS011;4477;48.736;9.176;2023-12-20T12:29:16;6.83;;;2.10;;
8881;SDS011;4477;48.736;9.176;2023-12-20T12:31:43;3.03;;;1.90;;
8881;SDS011;4477;48.736;9.176;2023-12-20T12:34:10;3.40;;;2.13;;
8881;SDS011;4477;48.736;9.176;2023-12-20T12:36:39;5.63;;;1.90;;
8881;SDS011;4477;48.736;9.176;2023-12-20T12:39:06;2.83;;;1.70;;
8881;SDS011;4477;48.736;9.176;2023-12-20T12:41:33;6.13;;;1.80;;
8881;SDS011;4477;48.736;9.176;2023-12-20T12:44:00;6.67;;;1.90;;
8881;SDS011;4477;48.736;9.176;2023-12-20T12:46:27;3.03;;;1.40;;
8881;SDS011;4477;48.736;9.176;2023-12-20T12:48:54;3.97;;;1.87;;
8881;SDS011;4477;48.736;9.176;2023-12-20T12:51:21;4.40;;;1.90;;
8881;SDS011;4477;48.736;9.176;2023-12-20T12:53:49;2.83;;;2.00;;
8881;SDS011;4477;48.736;9.176;2023-12-20T12:56:16;4.53;;;1.80;;
8881;SDS011;4477;48.736;9.176;2023-12-20T12:58:43;4.20;;;2.00;;
8881;SDS011;4477;48.736;9.176;2023-12-20T13:01:10;3.90;;;1.77;;
8881;SDS011;4477;48.736;9.176;2023-12-20T13:03:37;6.30;;;1.80;;
8881;SDS011;4477;48.736;9.176;2023-12-20T13:06:04;5.20;;;2.10;;
8881;SDS011;4477;48.736;9.176;2023-12-20T13:08:34;3.17;;;1.50;;
8881;SDS011;4477;48.736;9.176;2023-12-20T13:11:02;4.70;;;1.60;;
8881;SDS011;4477;48.736;9.176;2023-12-20T13:13:29;3.63;;;1.70;;
8881;SDS011;4477;48.736;9.176;2023-12-20T13:15:56;4.60;;;1.90;;
8881;SDS011;4477;48.736;9.176;2023-12-20T13:18:23;4.13;;;1.80;;
8881;SDS011;4477;48.736;9.176;2023-12-20T13:20:50;3.47;;;1.57;;
8881;SDS011;4477;48.736;9.176;2023-12-20T13:23:17;6.10;;;1.83;;
8881;SDS011;4477;48.736;9.176;2023-12-20T13:25:44;3.90;;;1.37;;
8881;SDS011;4477;48.736;9.176;2023-12-20T13:28:13;4.77;;;1.70;;
8881;SDS011;4477;48.736;9.176;2023-12-20T13:30:40;4.60;;;2.10;;
8881;SDS011;4477;48.736;9.176;2023-12-20T13:33:07;3.93;;;1.50;;
8881;SDS011;4477;48.736;9.176;2023-12-20T13:35:34;3.40;;;1.57;;
8881;SDS011;4477;48.736;9.176;2023-12-20T13:38:01;4.23;;;1.70;;
8881;SDS011;4477;48.736;9.176;2023-12-20T13:40:27;5.37;;;1.23;;
8881;SDS011;4477;48.736;9.176;2023-12-20T13:42:54;5.23;;;1.70;;
8881;SDS011;4477;48.736;9.176;2023-12-20T13:45:22;3.70;;;1.20;;
8881;SDS011;4477;48.736;9.176;2023-12-20T13:47:50;2.93;;;1.20;;
8881;SDS011;4477;48.736;9.176;2023-12-20T13:50:17;3.33;;;1.30;;
8881;SDS011;4477;48.736;9.176;2023-12-20T13:52:44;3.60;;;1.30;;
8881;SDS011;4477;48.736;9.176;2023-12-20T13:55:11;2.83;;;1.23;;
8881;SDS011;4477;48.736;9.176;2023-12-20T13:57:39;4.40;;;1.47;;
8881;SDS011;4477;48.736;9.176;2023-12-20T14:00:07;3.30;;;1.50;;
8881;SDS011;4477;48.736;9.176;2023-12-20T14:02:40;2.83;;;1.27;;
8881;SDS011;4477;48.736;9.176;2023-12-20T14:05:08;3.77;;;1.60;;
8881;SDS011;4477;48.736;9.176;2023-12-20T14:07:35;2.10;;;1.20;;
8881;SDS011;4477;48.736;9.176;2023-12-20T14:10:02;4.50;;;1.73;;
8881;SDS011;4477;48.736;9.176;2023-12-20T14:12:30;4.30;;;1.20;;
8881;SDS011;4477;48.736;9.176;2023-12-20T14:15:00;4.20;;;1.50;;
8881;SDS011;4477;48.736;9.176;2023-12-20T14:17:27;4.57;;;1.43;;
8881;SDS011;4477;48.736;9.176;2023-12-20T14:19:55;1.60;;;1.30;;
8881;SDS011;4477;48.736;9.176;2023-12-20T14:22:22;2.87;;;1.50;;
8881;SDS011;4477;48.736;9.176;2023-12-20T14:24:50;4.37;;;1.70;;
8881;SDS011;4477;48.736;9.176;2023-12-20T14:27:17;5.07;;;1.70;;
8881;SDS011;4477;48.736;9.176;2023-12-20T14:29:47;4.43;;;1.50;;
8881;SDS011;4477;48.736;9.176;2023-12-20T14:32:14;8.43;;;3.50;;
8881;SDS011;4477;48.736;9.176;2023-12-20T14:34:41;12.33;;;6.67;;
8881;SDS011;4477;48.736;9.176;2023-12-20T14:37:09;8.63;;;3.43;;
8881;SDS011;4477;48.736;9.176;2023-12-20T14:39:36;8.10;;;4.47;;
8881;SDS011;4477;48.736;9.176;2023-12-20T14:42:06;16.50;;;8.03;;
8881;SDS011;4477;48.736;9.176;2023-12-20T14:44:36;47.27;;;24.17;;
8881;SDS011;4477;48.736;9.176;2023-12-20T14:47:03;54.50;;;29.43;;
8881;SDS011;4477;48.736;9.176;2023-12-20T14:49:30;10.03;;;4.03;;
8881;SDS011;4477;48.736;9.176;2023-12-20T14:51:57;11.83;;;8.93;;
8881;SDS011;4477;48.736;9.176;2023-12-20T14:54:26;8.57;;;5.33;;
8881;SDS011;4477;48.736;9.176;2023-12-20T14:56:52;11.47;;;7.83;;
8881;SDS011;4477;48.736;9.176;2023-12-20T14:59:20;12.73;;;10.40;;
8881;SDS011;4477;48.736;9.176;2023-12-20T15:01:48;6.23;;;4.10;;
8881;SDS011;4477;48.736;9.176;2023-12-20T15:04:15;5.77;;;2.67;;
8881;SDS011;4477;48.736;9.176;2023-12-20T15:06:41;2.87;;;2.13;;
8881;SDS011;4477;48.736;9.176;2023-12-20T15:09:09;4.07;;;1.43;;
8881;SDS011;4477;48.736;9.176;2023-12-20T15:11:38;3.40;;;1.70;;
8881;SDS011;4477;48.736;9.176;2023-12-20T15:14:05;2.50;;;1.70;;
8881;SDS011;4477;48.736;9.176;2023-12-20T15:16:32;3.60;;;1.90;;
8881;SDS011;4477;48.736;9.176;2023-12-20T15:19:00;2.27;;;1.60;;
8881;SDS011;4477;48.736;9.176;2023-12-20T15:21:26;3.97;;;1.70;;
8881;SDS011;4477;48.736;9.176;2023-12-20T15:23:57;5.47;;;1.97;;
8881;SDS011;4477;48.736;9.176;2023-12-20T15:26:31;4.37;;;1.90;;